Time;durP1;ratioP1;P1;durP2;ratioP2;P2;SDS_P1;SDS_P2;PMS_P1;PMS_P2;Temp;Humidity;BMP_temperature;BMP_pressure;BME280_temperature;BME280_humidity;BME280_pressure;Samples;Min_cycle;Max_cycle;Signal;HPM_P1;HPM_P2
2022/03/01 00:00:03;;;;;;;5.78;1.75;;;-2.40;99.90;;;;;;4956746;29;20028;-78
2022/03/01 00:02:28;;;;;;;5.18;1.70;;;-2.40;99.90;;;;;;4956629;28;20027;-78
2022/03/01 00:04:54;;;;;;;2.22;1.42;;;-2.50;99.90;;;;;;4955346;29;20125;-78
2022/03/01 00:07:20;;;;;;;5.85;1.90;;;-2.50;99.90;;;;;;4956413;28;20027;-78
2022/03/01 00:09:45;;;;;;;5.07;1.90;;;-2.50;99.90;;;;;;4955433;29;20038;-78
2022/03/01 00:12:11;;;;;;;5.82;1.67;;;-2.50;99.90;;;;;;4956344;29;20023;-78
2022/03/01 00:14:37;;;;;;;4.18;1.55;;;-2.50;99.90;;;;;;4956621;28;20106;-79
2022/03/01 00:17:03;;;;;;;4.85;1.70;;;-2.60;99.90;;;;;;4956439;28;20055;-78
2022/03/01 00:19:29;;;;;;;8.32;1.80;;;-2.70;99.90;;;;;;4956369;28;20471;-78
2022/03/01 00:21:57;;;;;;;2.40;1.73;;;-2.80;99.90;;;;;;4956332;29;20045;-78
2022/03/01 00:24:22;;;;;;;6.18;1.90;;;-2.80;99.90;;;;;;4956140;28;20034;-78
2022/03/01 00:26:48;;;;;;;9.13;1.75;;;-2.80;99.90;;;;;;4956473;28;20026;-78
2022/03/01 00:29:15;;;;;;;6.68;1.92;;;-2.80;99.90;;;;;;4954900;29;20031;-78
2022/03/01 00:31:41;;;;;;;4.53;1.60;;;-2.80;99.90;;;;;;4955474;28;20058;-78
2022/03/01 00:34:07;;;;;;;4.45;1.63;;;-2.90;99.90;;;;;;4956392;28;20062;-78
2022/03/01 00:36:33;;;;;;;3.80;1.40;;;-2.90;99.90;;;;;;4955783;28;20039;-78
2022/03/01 00:38:59;;;;;;;5.32;1.90;;;-3.00;99.90;;;;;;4955889;29;20078;-78
2022/03/01 00:41:24;;;;;;;6.85;1.90;;;-3.00;99.90;;;;;;4955763;28;20062;-78
2022/03/01 00:43:51;;;;;;;10.55;1.85;;;-3.10;99.90;;;;;;4955926;29;20086;-78
2022/03/01 00:46:17;;;;;;;3.95;1.70;;;-3.10;99.90;;;;;;4955806;29;20032;-78
2022/03/01 00:48:43;;;;;;;2.88;1.63;;;-3.10;99.90;;;;;;4955850;28;20027;-75
2022/03/01 00:51:08;;;;;;;5.20;1.45;;;-3.10;99.90;;;;;;4955959;29;20034;-73
2022/03/01 00:53:34;;;;;;;3.22;1.63;;;-3.20;99.90;;;;;;4955778;28;20423;-73
2022/03/01 00:56:04;;;;;;;9.43;1.77;;;-3.20;99.90;;;;;;4955997;28;20031;-73
2022/03/01 00:58:30;;;;;;;5.20;1.48;;;-3.20;99.90;;;;;;4955457;29;20475;-73
2022/03/01 01:00:56;;;;;;;3.72;2.00;;;-3.20;99.90;;;;;;4955693;28;20027;-73
2022/03/01 01:03:22;;;;;;;4.80;1.92;;;-3.30;99.90;;;;;;4955481;29;20027;-73
2022/03/01 01:05:47;;;;;;;4.13;2.08;;;-3.30;99.90;;;;;;4955377;29;20059;-73
2022/03/01 01:08:13;;;;;;;6.20;1.90;;;-3.40;99.90;;;;;;4955370;29;20049;-73
2022/03/01 01:10:39;;;;;;;3.58;2.13;;;-3.40;99.90;;;;;;4955423;29;20166;-73
2022/03/01 01:13:05;;;;;;;4.80;1.63;;;-3.40;99.90;;;;;;4955579;29;20042;-74
2022/03/01 01:15:30;;;;;;;8.88;2.03;;;-3.40;99.90;;;;;;4955231;29;20498;-74
2022/03/01 01:17:56;;;;;;;5.03;1.58;;;-3.40;99.90;;;;;;4955329;28;20035;-73
2022/03/01 01:20:22;;;;;;;3.17;1.60;;;-3.40;99.90;;;;;;4955277;28;20094;-74
2022/03/01 01:22:48;;;;;;;5.07;1.70;;;-3.40;99.90;;;;;;4955201;29;20085;-74
2022/03/01 01:25:15;;;;;;;5.55;1.63;;;-3.40;99.90;;;;;;4954976;28;20039;-74
2022/03/01 01:27:51;;;;;;;5.38;1.65;;;-3.40;99.90;;;;;;4955419;28;20063;-74
2022/03/01 01:30:19;;;;;;;4.43;2.20;;;-3.40;99.90;;;;;;4955108;28;20038;-74
2022/03/01 01:32:47;;;;;;;6.32;1.90;;;-3.40;99.90;;;;;;4955117;28;20024;-74
2022/03/01 01:35:14;;;;;;;4.40;1.80;;;-3.40;99.90;;;;;;4954952;28;20106;-74
2022/03/01 01:37:40;;;;;;;6.00;1.80;;;-3.40;99.90;;;;;;4954742;28;20487;-74
2022/03/01 01:40:09;;;;;;;3.53;1.52;;;-3.40;99.90;;;;;;4954986;28;20506;-75
2022/03/01 01:42:35;;;;;;;7.03;1.65;;;-3.40;99.90;;;;;;4953643;28;20426;-74
2022/03/01 01:45:02;;;;;;;4.75;1.85;;;-3.50;99.90;;;;;;4954960;29;20036;-74
2022/03/01 01:47:28;;;;;;;5.82;1.98;;;-3.50;99.90;;;;;;4954647;28;20038;-74
2022/03/01 01:49:54;;;;;;;5.68;1.77;;;-3.60;99.90;;;;;;4954837;28;20031;-74
2022/03/01 01:52:20;;;;;;;5.50;1.80;;;-3.60;99.90;;;;;;4954542;28;20026;-74
2022/03/01 01:54:45;;;;;;;5.03;1.85;;;-3.60;99.90;;;;;;4954691;28;20133;-74
2022/03/01 01:57:23;;;;;;;3.97;1.67;;;-3.60;99.90;;;;;;4954657;29;20101;-74
2022/03/01 01:59:51;;;;;;;5.00;1.67;;;-3.60;99.90;;;;;;4953366;29;20027;-74
2022/03/01 02:02:20;;;;;;;3.88;1.50;;;-3.60;99.90;;;;;;4954420;28;20042;-74
2022/03/01 02:04:46;;;;;;;5.43;1.65;;;-3.60;99.90;;;;;;4953284;29;20383;-74
2022/03/01 02:07:12;;;;;;;6.20;1.60;;;-3.70;99.90;;;;;;4954616;28;20382;-75
2022/03/01 02:09:38;;;;;;;5.25;1.95;;;-3.70;99.90;;;;;;4954667;28;20031;-74
2022/03/01 02:12:05;;;;;;;5.43;1.70;;;-3.70;99.90;;;;;;4954446;28;20023;-73
2022/03/01 02:14:31;;;;;;;3.72;1.80;;;-3.70;99.90;;;;;;4954179;28;20027;-74
2022/03/01 02:17:00;;;;;;;4.90;1.35;;;-3.70;99.90;;;;;;4950558;28;20032;-74
2022/03/01 02:19:27;;;;;;;6.47;1.63;;;-3.70;99.90;;;;;;4935072;29;20028;-75
2022/03/01 02:21:56;;;;;;;3.60;1.50;;;-3.80;99.90;;;;;;4935742;29;20023;-76
2022/03/01 02:55:51;;;;;;;5.38;2.05;;;-3.50;99.90;;;;;;4933916;29;20047;-72
2022/03/01 02:58:17;;;;;;;4.20;1.88;;;-3.60;99.90;;;;;;4934673;29;20459;-73
2022/03/01 03:00:44;;;;;;;6.22;1.70;;;-3.60;99.90;;;;;;4934765;29;20027;-73
2022/03/01 03:03:11;;;;;;;5.20;1.70;;;-3.50;99.90;;;;;;4934780;29;20028;-74
2022/03/01 03:39:17;;;;;;;5.85;1.65;;;-3.50;99.90;;;;;;5076867;23;20094;-71
2022/03/01 03:41:42;;;;;;;4.90;2.08;;;-3.50;99.90;;;;;;4953504;29;20024;-71
2022/03/01 03:44:08;;;;;;;4.03;1.92;;;-3.50;99.90;;;;;;4953431;29;20671;-73
2022/03/01 03:46:35;;;;;;;6.13;1.80;;;-3.70;99.90;;;;;;4952288;29;20034;-73
2022/03/01 03:49:00;;;;;;;4.25;1.88;;;-3.80;99.90;;;;;;4953216;29;20031;-74
2022/03/01 03:51:26;;;;;;;3.47;1.90;;;-3.80;99.90;;;;;;4953530;29;20038;-72
2022/03/01 03:53:52;;;;;;;8.23;2.10;;;-3.70;99.90;;;;;;4953567;29;20027;-73
2022/03/01 03:56:18;;;;;;;3.15;2.10;;;-3.70;99.90;;;;;;4953472;28;20031;-72
2022/03/01 03:58:44;;;;;;;7.03;1.95;;;-3.60;99.90;;;;;;4953150;29;20086;-72
2022/03/01 04:01:10;;;;;;;4.55;1.92;;;-3.60;99.90;;;;;;4953359;28;20474;-73
2022/03/01 04:03:36;;;;;;;5.00;1.83;;;-3.60;99.90;;;;;;4953417;29;20027;-73
2022/03/01 04:06:03;;;;;;;3.30;2.00;;;-3.50;99.90;;;;;;4954249;28;20070;-72
2022/03/01 04:08:28;;;;;;;8.43;1.90;;;-3.50;99.90;;;;;;4957023;28;20049;-72
2022/03/01 04:10:56;;;;;;;3.88;1.75;;;-3.50;99.90;;;;;;4956940;28;20526;-72
2022/03/01 04:13:23;;;;;;;4.03;1.80;;;-3.50;99.90;;;;;;4956615;28;20359;-72
2022/03/01 04:15:49;;;;;;;5.63;1.92;;;-3.50;99.90;;;;;;4956555;28;20042;-72
2022/03/01 04:18:15;;;;;;;4.85;2.13;;;-3.50;99.90;;;;;;4956620;28;20023;-72
2022/03/01 04:20:40;;;;;;;4.32;1.90;;;-3.50;99.90;;;;;;4956656;28;20028;-72
2022/03/01 04:23:06;;;;;;;6.82;2.00;;;-3.50;99.90;;;;;;4956465;28;20042;-72
2022/03/01 04:25:32;;;;;;;6.55;2.45;;;-3.60;99.90;;;;;;4956514;28;20494;-72
2022/03/01 04:27:58;;;;;;;4.57;1.63;;;-3.60;99.90;;;;;;4956475;28;20029;-72
2022/03/01 04:30:23;;;;;;;5.07;2.03;;;-3.60;99.90;;;;;;4956590;29;20479;-73
2022/03/01 04:32:50;;;;;;;5.10;2.80;;;-3.60;99.90;;;;;;4956545;28;20026;-74
2022/03/01 04:35:16;;;;;;;3.33;1.83;;;-3.70;99.90;;;;;;4956402;28;20058;-74
2022/03/01 04:37:43;;;;;;;5.55;2.13;;;-3.70;99.90;;;;;;4956169;28;20059;-74
2022/03/01 04:40:10;;;;;;;5.57;2.10;;;-3.70;99.90;;;;;;4956260;28;20103;-73
2022/03/01 04:42:36;;;;;;;4.63;1.92;;;-3.70;99.90;;;;;;4956225;28;20078;-74
2022/03/01 04:45:05;;;;;;;3.95;1.80;;;-3.70;99.90;;;;;;4954649;29;20118;-73
2022/03/01 04:47:31;;;;;;;6.15;2.38;;;-3.70;99.90;;;;;;4956011;28;20485;-73
2022/03/01 04:49:57;;;;;;;2.45;1.80;;;-3.70;99.90;;;;;;4956211;29;20445;-70
2022/03/01 04:52:23;;;;;;;4.35;1.90;;;-3.80;99.90;;;;;;4955979;28;20562;-70
2022/03/01 04:54:49;;;;;;;4.20;1.80;;;-3.80;99.90;;;;;;4955766;29;20083;-70
2022/03/01 04:57:14;;;;;;;4.00;2.05;;;-3.80;99.90;;;;;;4955963;28;20023;-69
2022/03/01 04:59:40;;;;;;;3.97;2.53;;;-3.90;99.90;;;;;;4955871;29;20039;-70
2022/03/01 05:02:06;;;;;;;5.93;2.85;;;-3.90;99.90;;;;;;4955720;29;20030;-69
2022/03/01 05:04:31;;;;;;;8.07;3.00;;;-3.90;99.90;;;;;;4955623;28;20046;-71
2022/03/01 05:06:57;;;;;;;8.30;2.28;;;-3.90;99.90;;;;;;4955574;29;20027;-70
2022/03/01 05:09:23;;;;;;;4.00;2.30;;;-3.80;99.90;;;;;;4955541;28;20027;-71
2022/03/01 05:11:52;;;;;;;5.43;1.90;;;-3.80;99.90;;;;;;4954195;29;20036;-71
2022/03/01 05:14:19;;;;;;;5.28;1.70;;;-3.80;99.90;;;;;;4955369;28;20031;-71
2022/03/01 05:16:45;;;;;;;7.18;2.03;;;-3.80;99.90;;;;;;4955331;28;20027;-70
2022/03/01 05:19:15;;;;;;;7.25;2.13;;;-3.80;99.90;;;;;;4955654;28;20027;-70
2022/03/01 05:21:41;;;;;;;3.15;1.98;;;-3.90;99.90;;;;;;4955227;28;20078;-70
2022/03/01 05:24:07;;;;;;;5.13;2.20;;;-3.90;99.90;;;;;;4954973;28;20042;-70
2022/03/01 05:26:33;;;;;;;4.72;1.90;;;-3.90;99.90;;;;;;4955375;28;20082;-70
2022/03/01 05:28:59;;;;;;;3.40;1.70;;;-3.80;99.90;;;;;;4955067;28;20035;-71
2022/03/01 05:31:25;;;;;;;3.22;1.95;;;-3.80;99.90;;;;;;4955088;28;20019;-69
2022/03/01 05:33:52;;;;;;;3.28;1.60;;;-3.80;99.90;;;;;;4955194;28;20019;-69
2022/03/01 05:36:18;;;;;;;3.47;1.90;;;-3.70;99.90;;;;;;4954829;28;20025;-78
2022/03/01 05:38:44;;;;;;;6.97;2.10;;;-3.60;99.90;;;;;;4954752;28;20039;-73
2022/03/01 05:41:10;;;;;;;7.22;2.40;;;-3.60;99.90;;;;;;4954839;29;20043;-72
2022/03/01 05:43:37;;;;;;;4.57;2.10;;;-3.30;99.90;;;;;;4953401;29;20379;-72
2022/03/01 05:46:05;;;;;;;3.40;2.10;;;-1.50;99.90;;;;;;4954698;28;20501;-75
2022/03/01 05:48:32;;;;;;;6.97;2.67;;;-1.40;99.90;;;;;;4953481;28;20154;-77
2022/03/01 05:50:58;;;;;;;9.88;2.50;;;-1.70;99.90;;;;;;4934218;28;20478;-76
2022/03/01 05:53:24;;;;;;;3.70;2.15;;;-2.00;99.90;;;;;;4935201;29;20531;-75
2022/03/01 05:55:50;;;;;;;4.85;1.98;;;-2.20;99.90;;;;;;4940884;29;20035;-75
2022/03/01 05:58:16;;;;;;;6.75;2.58;;;-2.40;99.90;;;;;;4947149;29;20390;-81
2022/03/01 06:00:42;;;;;;;8.13;2.58;;;-2.50;99.90;;;;;;4939362;29;20028;-72
2022/03/01 06:03:07;;;;;;;7.25;3.53;;;-2.50;99.90;;;;;;4945172;29;20038;-72
2022/03/01 06:05:35;;;;;;;9.40;3.65;;;-2.60;99.90;;;;;;4951488;29;20122;-73
2022/03/01 06:08:01;;;;;;;6.13;2.70;;;-2.60;99.90;;;;;;4953216;28;20398;-73
2022/03/01 06:10:27;;;;;;;8.40;2.67;;;-2.60;99.90;;;;;;4953691;28;20139;-73
2022/03/01 06:12:53;;;;;;;8.25;2.55;;;-2.70;99.90;;;;;;4953713;28;20050;-73
2022/03/01 06:15:19;;;;;;;6.75;2.65;;;-2.80;99.90;;;;;;4953810;28;20031;-73
2022/03/01 06:17:45;;;;;;;9.18;3.08;;;-2.90;99.90;;;;;;4954460;28;20034;-72
2022/03/01 06:20:11;;;;;;;6.07;2.47;;;-2.90;99.90;;;;;;4954275;28;20024;-73
2022/03/01 06:22:38;;;;;;;9.43;2.70;;;-2.70;99.90;;;;;;4954542;28;20090;-73
2022/03/01 06:25:06;;;;;;;10.38;3.00;;;-2.50;99.90;;;;;;4954115;28;20517;-73
2022/03/01 06:27:33;;;;;;;6.35;2.47;;;-2.50;99.90;;;;;;4953057;29;20035;-74
2022/03/01 06:29:59;;;;;;;9.73;2.50;;;-2.60;99.90;;;;;;4968241;28;20125;-74
2022/03/01 06:32:25;;;;;;;11.43;3.03;;;-2.60;99.90;;;;;;4954148;29;20102;-77
2022/03/01 06:34:50;;;;;;;5.03;2.30;;;-2.60;99.90;;;;;;4954058;28;20479;-77
2022/03/01 06:37:16;;;;;;;6.13;2.42;;;-2.60;99.90;;;;;;4953829;28;20082;-76
2022/03/01 06:39:44;;;;;;;6.97;2.38;;;-2.60;99.90;;;;;;4954323;28;20486;-77
2022/03/01 06:42:11;;;;;;;11.73;3.33;;;-2.60;99.90;;;;;;4953988;28;20027;-77
2022/03/01 06:44:37;;;;;;;7.70;2.72;;;-2.60;99.90;;;;;;4952562;29;20071;-77
2022/03/01 06:47:04;;;;;;;7.65;2.50;;;-2.60;99.90;;;;;;4954088;28;20023;-77
2022/03/01 06:49:31;;;;;;;6.18;2.63;;;-2.50;99.90;;;;;;4953857;28;20031;-77
2022/03/01 06:51:57;;;;;;;7.70;2.33;;;-2.50;99.90;;;;;;4954219;28;20034;-77
2022/03/01 06:54:23;;;;;;;6.35;2.05;;;-2.50;99.90;;;;;;4953880;28;20475;-74
2022/03/01 06:56:49;;;;;;;5.13;2.08;;;-1.90;99.90;;;;;;4953867;29;20035;-77
2022/03/01 06:59:15;;;;;;;5.75;2.20;;;-1.50;99.90;;;;;;4953640;29;20097;-77
2022/03/01 07:01:41;;;;;;;47.00;18.02;;;-1.60;99.90;;;;;;4968699;28;20027;-77
2022/03/01 07:04:07;;;;;;;77.10;25.25;;;-1.80;99.90;;;;;;4953605;29;20031;-77
2022/03/01 07:06:33;;;;;;;119.63;38.53;;;-1.90;99.90;;;;;;4953803;29;20451;-78
2022/03/01 07:08:59;;;;;;;189.20;56.13;;;-1.90;99.90;;;;;;4953628;28;20103;-79
2022/03/01 07:11:24;;;;;;;347.38;111.07;;;-1.90;99.90;;;;;;4953874;29;20062;-78
2022/03/01 07:13:50;;;;;;;295.88;97.53;;;-1.90;99.90;;;;;;4953609;29;20020;-78
2022/03/01 07:16:16;;;;;;;206.07;74.97;;;-1.80;99.90;;;;;;4953602;29;20026;-78
2022/03/01 07:18:43;;;;;;;94.72;35.85;;;-1.70;99.90;;;;;;4953596;28;20037;-79
2022/03/01 07:21:09;;;;;;;22.95;12.32;;;-1.70;99.90;;;;;;4953718;28;20035;-79
2022/03/01 07:23:35;;;;;;;14.13;8.30;;;-1.60;99.90;;;;;;4953362;28;20054;-75
2022/03/01 07:26:01;;;;;;;8.27;5.40;;;-1.50;99.90;;;;;;4953559;28;20439;-75
2022/03/01 07:28:27;;;;;;;11.68;7.60;;;-1.40;99.90;;;;;;4953768;28;20019;-75
2022/03/01 07:30:55;;;;;;;38.25;18.73;;;-1.30;99.90;;;;;;4950923;29;20819;-76
2022/03/01 07:33:20;;;;;;;68.13;31.42;;;-1.20;99.90;;;;;;4953027;28;20066;-76
2022/03/01 07:35:46;;;;;;;21.35;12.07;;;-1.10;99.90;;;;;;4953613;29;20423;-76
2022/03/01 07:38:12;;;;;;;9.05;4.65;;;-1.10;99.90;;;;;;4950278;28;21004;-76
2022/03/01 07:40:38;;;;;;;6.22;3.63;;;-1.00;99.90;;;;;;4952483;28;20070;-76
2022/03/01 07:43:04;;;;;;;7.68;3.47;;;-1.00;99.90;;;;;;4956363;28;20074;-77
2022/03/01 07:45:30;;;;;;;4.60;2.90;;;-0.90;99.90;;;;;;4956520;29;20039;-69
2022/03/01 07:47:57;;;;;;;9.35;3.95;;;-0.40;99.90;;;;;;4956150;29;20035;-69
2022/03/01 07:50:23;;;;;;;5.43;2.92;;;0.70;99.90;;;;;;4956849;28;20035;-69
2022/03/01 07:52:49;;;;;;;5.40;2.80;;;1.60;99.90;;;;;;4956153;28;20098;-69
2022/03/01 07:55:14;;;;;;;3.47;2.20;;;2.30;99.90;;;;;;4956253;28;20047;-69
2022/03/01 07:57:41;;;;;;;6.32;2.38;;;2.40;99.90;;;;;;4956733;29;20030;-69
2022/03/01 08:00:09;;;;;;;5.80;2.45;;;1.80;99.90;;;;;;4955990;28;20032;-69
2022/03/01 08:02:36;;;;;;;7.30;2.60;;;1.40;99.90;;;;;;4956176;28;20027;-69
2022/03/01 08:05:03;;;;;;;10.40;2.90;;;1.20;99.90;;;;;;4956336;28;20171;-69
2022/03/01 08:07:28;;;;;;;4.38;2.47;;;1.00;99.90;;;;;;4955910;28;20063;-74
2022/03/01 08:09:54;;;;;;;6.93;2.85;;;0.90;99.90;;;;;;4955964;28;20066;-73
2022/03/01 08:12:21;;;;;;;6.35;2.63;;;0.90;99.90;;;;;;4952241;28;20055;-79
2022/03/01 08:14:47;;;;;;;7.28;3.00;;;0.80;99.90;;;;;;4956279;29;20023;-75
2022/03/01 08:17:12;;;;;;;6.10;2.70;;;0.80;99.90;;;;;;4955547;29;20089;-76
2022/03/01 08:19:38;;;;;;;4.68;2.80;;;0.70;99.90;;;;;;4955940;29;20039;-74
2022/03/01 08:22:04;;;;;;;5.57;2.83;;;0.70;99.90;;;;;;4955559;28;20364;-74
2022/03/01 08:24:30;;;;;;;5.80;3.10;;;0.70;99.90;;;;;;4956538;28;20432;-73
2022/03/01 08:26:56;;;;;;;5.28;3.05;;;0.70;99.90;;;;;;4956576;28;20031;-73
2022/03/01 08:29:21;;;;;;;6.88;3.10;;;0.70;99.90;;;;;;4956420;28;20023;-73
2022/03/01 08:31:47;;;;;;;9.27;3.70;;;0.70;99.90;;;;;;4956643;29;20086;-72
2022/03/01 08:34:13;;;;;;;7.20;3.30;;;0.80;99.90;;;;;;4956070;28;20055;-73
2022/03/01 08:36:39;;;;;;;8.07;3.40;;;0.80;99.90;;;;;;4956259;28;20028;-73
2022/03/01 08:39:05;;;;;;;6.45;3.00;;;0.90;99.90;;;;;;4955728;28;20062;-73
2022/03/01 08:41:31;;;;;;;5.35;3.00;;;0.90;99.90;;;;;;4955973;28;20114;-75
2022/03/01 08:43:57;;;;;;;4.88;3.15;;;0.90;99.90;;;;;;4959485;28;20023;-77
2022/03/01 08:46:26;;;;;;;7.95;3.35;;;1.00;99.90;;;;;;4960501;28;20038;-76
2022/03/01 08:48:53;;;;;;;6.00;3.10;;;1.00;99.90;;;;;;4951287;28;20038;-76
2022/03/01 08:51:23;;;;;;;9.65;3.17;;;1.10;99.90;;;;;;4948771;29;20110;-76
2022/03/01 08:53:50;;;;;;;10.23;3.28;;;1.10;99.90;;;;;;4955067;28;20019;-75
2022/03/01 08:56:16;;;;;;;9.02;3.35;;;1.20;99.90;;;;;;4945201;28;20043;-81
2022/03/01 08:58:43;;;;;;;9.02;3.58;;;2.30;99.90;;;;;;4953085;29;20023;-81
2022/03/01 09:01:10;;;;;;;7.38;3.17;;;2.30;99.90;;;;;;4953551;29;20051;-81
2022/03/01 09:03:36;;;;;;;7.25;3.58;;;2.20;99.90;;;;;;4955909;28;20023;-80
2022/03/01 09:06:05;;;;;;;7.45;3.13;;;2.10;99.90;;;;;;4955538;28;20039;-81
2022/03/01 09:08:35;;;;;;;8.80;3.28;;;2.10;99.90;;;;;;4955702;28;20023;-81
2022/03/01 09:11:02;;;;;;;6.15;3.22;;;2.50;99.90;;;;;;4955798;28;20031;-80
2022/03/01 09:13:28;;;;;;;8.88;3.55;;;3.20;99.90;;;;;;4955484;28;20034;-80
2022/03/01 09:15:54;;;;;;;8.95;3.00;;;2.90;99.90;;;;;;4955435;28;20102;-80
2022/03/01 09:18:21;;;;;;;5.15;3.40;;;2.80;99.90;;;;;;4955401;29;20050;-81
2022/03/01 09:20:47;;;;;;;6.53;3.60;;;2.60;99.90;;;;;;4955676;28;20031;-81
2022/03/01 09:23:13;;;;;;;8.55;3.50;;;2.60;99.90;;;;;;4955316;28;20023;-81
2022/03/01 09:25:39;;;;;;;10.40;3.25;;;3.00;99.90;;;;;;4955249;28;20067;-79
2022/03/01 09:28:05;;;;;;;5.53;3.67;;;3.00;99.90;;;;;;4946413;28;20027;-72
2022/03/01 09:30:31;;;;;;;8.05;3.65;;;3.00;99.90;;;;;;4935260;29;20392;-77
2022/03/01 09:32:57;;;;;;;12.45;3.75;;;4.10;99.90;;;;;;4936199;29;20110;-77
2022/03/01 09:35:23;;;;;;;6.80;3.50;;;4.10;99.90;;;;;;4936285;29;20106;-77
2022/03/01 09:37:49;;;;;;;9.02;3.63;;;3.80;99.90;;;;;;4935575;29;20118;-77
2022/03/01 09:40:15;;;;;;;9.23;3.60;;;3.60;99.90;;;;;;4934386;29;20036;-78
2022/03/01 09:42:42;;;;;;;9.93;3.78;;;3.60;99.90;;;;;;4935933;29;20026;-75
2022/03/01 09:45:10;;;;;;;5.95;3.35;;;3.50;99.90;;;;;;4935734;29;20040;-78
2022/03/01 09:47:37;;;;;;;6.97;3.25;;;3.40;99.90;;;;;;4935922;29;20027;-74
2022/03/01 09:50:05;;;;;;;7.10;2.88;;;3.50;99.90;;;;;;4935454;29;20506;-69
2022/03/01 09:52:31;;;;;;;4.57;2.80;;;3.60;99.90;;;;;;4948420;29;20028;-72
2022/03/01 09:54:56;;;;;;;7.35;4.22;;;3.60;99.90;;;;;;4951403;29;20027;-76
2022/03/01 09:57:22;;;;;;;5.85;3.05;;;3.50;99.90;;;;;;4948800;28;20034;-76
2022/03/01 09:59:48;;;;;;;6.57;3.20;;;3.50;99.90;;;;;;4954435;28;20071;-72
2022/03/01 10:02:14;;;;;;;8.43;3.42;;;3.50;99.90;;;;;;4950163;29;20028;-79
2022/03/01 10:04:59;;;;;;;7.70;3.00;;;3.50;99.90;;;;;;4949865;28;20513;-77
2022/03/01 10:07:29;;;;;;;7.43;2.90;;;3.50;99.90;;;;;;4950790;28;20027;-78
2022/03/01 10:10:07;;;;;;;7.55;3.33;;;3.50;99.90;;;;;;4952108;28;20049;-80
2022/03/01 10:12:33;;;;;;;7.78;3.13;;;3.50;99.90;;;;;;4955488;28;20053;-78
2022/03/01 10:15:06;;;;;;;5.47;3.20;;;3.50;99.90;;;;;;4954643;28;20446;-79
2022/03/01 10:17:46;;;;;;;6.45;3.30;;;3.50;99.90;;;;;;4954318;28;20039;-79
2022/03/01 10:20:15;;;;;;;7.82;3.50;;;3.50;99.90;;;;;;4954155;28;20027;-78
2022/03/01 10:22:52;;;;;;;6.93;3.10;;;3.50;99.90;;;;;;4954476;28;20424;-78
2022/03/01 10:25:21;;;;;;;9.40;2.72;;;3.50;99.90;;;;;;4954016;28;20141;-77
2022/03/01 10:27:49;;;;;;;7.80;3.13;;;3.50;99.90;;;;;;4954204;28;20030;-78
2022/03/01 10:30:30;;;;;;;8.82;3.47;;;3.50;99.90;;;;;;4953870;28;20031;-78
2022/03/01 10:33:08;;;;;;;7.55;2.75;;;3.50;99.90;;;;;;4954415;28;20019;-78
2022/03/01 10:35:43;;;;;;;8.20;3.20;;;3.50;99.90;;;;;;4952969;29;20035;-77
2022/03/01 10:38:10;;;;;;;13.93;3.00;;;3.60;99.90;;;;;;4952416;28;20075;-75
2022/03/01 10:40:39;;;;;;;6.50;3.08;;;3.60;99.90;;;;;;4953758;28;20030;-77
2022/03/01 10:43:09;;;;;;;6.40;2.97;;;3.60;99.90;;;;;;4952838;28;20038;-77
2022/03/01 10:45:37;;;;;;;7.47;3.08;;;3.60;99.90;;;;;;4952882;28;20035;-79
2022/03/01 10:48:04;;;;;;;5.63;3.10;;;3.70;99.90;;;;;;4953763;29;20027;-78
2022/03/01 10:50:30;;;;;;;5.60;3.15;;;3.70;99.90;;;;;;4953809;28;20419;-76
2022/03/01 10:52:56;;;;;;;8.68;3.00;;;3.80;99.90;;;;;;4953806;28;20022;-77
2022/03/01 10:55:26;;;;;;;7.05;3.20;;;3.80;99.90;;;;;;4953522;28;20042;-77
2022/03/01 10:58:10;;;;;;;6.13;2.72;;;3.80;99.90;;;;;;4953683;28;20028;-76
2022/03/01 11:00:37;;;;;;;6.20;2.88;;;3.80;99.90;;;;;;4953877;28;20035;-76
2022/03/01 11:03:05;;;;;;;7.22;2.92;;;3.80;99.90;;;;;;4953688;28;20027;-76
2022/03/01 11:05:31;;;;;;;6.53;2.88;;;3.80;99.90;;;;;;4953732;28;20501;-77
2022/03/01 11:08:02;;;;;;;5.60;3.40;;;3.80;99.90;;;;;;4954163;28;20393;-76
2022/03/01 11:10:30;;;;;;;4.80;2.63;;;3.80;99.90;;;;;;4953865;28;20027;-76
2022/03/01 11:13:01;;;;;;;7.72;3.00;;;3.90;99.90;;;;;;4953862;28;20035;-77
2022/03/01 11:15:57;;;;;;;6.00;2.83;;;3.90;99.90;;;;;;4953617;28;20035;-76
2022/03/01 11:18:38;;;;;;;6.85;2.83;;;4.00;99.90;;;;;;4956470;28;20059;-78
2022/03/01 11:21:05;;;;;;;5.15;2.80;;;4.00;99.90;;;;;;4956682;28;20020;-75
2022/03/01 11:23:32;;;;;;;6.28;2.95;;;4.00;99.90;;;;;;4954720;29;20510;-77
2022/03/01 11:26:14;;;;;;;3.95;2.40;;;4.00;99.90;;;;;;4957448;28;20046;-77
2022/03/01 11:28:49;;;;;;;5.38;2.60;;;4.60;99.90;;;;;;4957643;28;20030;-76
2022/03/01 11:31:19;;;;;;;5.70;2.70;;;5.10;99.90;;;;;;4957471;28;20394;-76
2022/03/01 11:34:07;;;;;;;6.20;2.85;;;4.90;99.90;;;;;;4957559;28;20023;-76
2022/03/01 11:36:34;;;;;;;7.28;2.80;;;4.70;99.90;;;;;;4957365;28;20027;-76
2022/03/01 11:39:17;;;;;;;4.55;2.60;;;4.60;99.90;;;;;;4957296;28;20048;-72
2022/03/01 11:41:45;;;;;;;4.35;2.15;;;4.50;99.90;;;;;;4949796;29;20028;-71
2022/03/01 11:44:12;;;;;;;5.40;2.53;;;4.40;99.90;;;;;;4937833;29;20428;-72
2022/03/01 11:46:44;;;;;;;3.80;2.22;;;4.40;99.90;;;;;;4937621;29;20357;-72
2022/03/01 11:49:12;;;;;;;5.82;2.95;;;4.30;99.90;;;;;;4936778;29;20034;-74
2022/03/01 11:51:45;;;;;;;5.05;2.58;;;4.30;99.90;;;;;;4937998;29;20031;-76
2022/03/01 11:54:20;;;;;;;5.20;2.60;;;4.40;99.90;;;;;;4940746;29;20015;-75
2022/03/01 11:56:49;;;;;;;2.95;1.88;;;4.40;99.90;;;;;;4953068;28;20684;-78
2022/03/01 11:59:16;;;;;;;3.78;2.20;;;6.60;99.90;;;;;;4954923;28;20034;-77
2022/03/01 12:01:42;;;;;;;5.32;2.50;;;6.80;99.90;;;;;;4941598;28;20024;-76
2022/03/01 12:04:09;;;;;;;5.03;2.58;;;6.30;99.90;;;;;;4954655;28;20046;-79
2022/03/01 12:06:37;;;;;;;3.45;2.20;;;5.90;99.90;;;;;;4955973;28;20122;-81
2022/03/01 12:09:08;;;;;;;5.93;2.10;;;5.60;99.90;;;;;;4951864;28;20103;-78
2022/03/01 12:11:40;;;;;;;4.80;2.58;;;5.30;99.90;;;;;;4956141;28;20027;-79
2022/03/01 12:14:12;;;;;;;4.63;2.50;;;5.20;99.90;;;;;;4956104;28;20019;-79
2022/03/01 12:16:39;;;;;;;3.28;2.20;;;5.10;99.90;;;;;;4951012;28;20054;-78
2022/03/01 12:19:09;;;;;;;3.85;2.30;;;5.10;99.90;;;;;;4947687;28;20028;-77
2022/03/01 12:21:36;;;;;;;5.05;2.38;;;5.00;99.90;;;;;;4944446;29;20106;-79
2022/03/01 12:24:03;;;;;;;6.38;2.30;;;4.90;99.90;;;;;;4954975;28;20023;-78
2022/03/01 12:26:29;;;;;;;4.22;2.05;;;4.90;99.90;;;;;;4952135;28;20122;-78
2022/03/01 12:28:58;;;;;;;2.95;2.20;;;4.80;99.90;;;;;;4953656;28;20084;-80
2022/03/01 12:31:27;;;;;;;4.97;2.10;;;4.80;99.90;;;;;;4956172;28;20082;-80
2022/03/01 12:34:02;;;;;;;4.03;2.13;;;4.80;99.90;;;;;;4956363;28;20038;-72
2022/03/01 12:36:31;;;;;;;3.95;2.33;;;4.80;99.90;;;;;;4956302;28;20034;-75
2022/03/01 12:39:02;;;;;;;3.92;2.40;;;5.10;99.90;;;;;;4956109;28;20048;-76
2022/03/01 12:41:28;;;;;;;4.20;2.22;;;5.10;99.90;;;;;;4956283;28;20027;-76
2022/03/01 12:43:56;;;;;;;4.47;2.60;;;4.90;99.90;;;;;;4956118;28;20521;-76
2022/03/01 12:46:22;;;;;;;3.70;2.53;;;5.00;99.90;;;;;;4955419;28;20134;-77
2022/03/01 12:48:49;;;;;;;3.45;2.10;;;4.90;99.90;;;;;;4956329;28;20027;-76
2022/03/01 12:51:15;;;;;;;3.83;2.03;;;4.90;99.90;;;;;;4955702;28;20027;-77
2022/03/01 12:54:22;;;;;;;2.00;1.70;;;4.90;99.90;;;;;;4956051;28;20146;-77
2022/03/01 12:56:59;;;;;;;5.25;2.00;;;4.90;99.90;;;;;;4927499;28;20035;-77
2022/03/01 12:59:32;;;;;;;5.60;1.98;;;4.80;99.90;;;;;;4956186;28;20343;-77
2022/03/01 13:02:00;;;;;;;4.47;1.98;;;4.80;99.90;;;;;;4954484;29;20027;-76
2022/03/01 13:04:31;;;;;;;3.20;1.83;;;4.80;99.90;;;;;;4955466;28;20035;-77
2022/03/01 13:06:57;;;;;;;3.60;1.85;;;4.80;99.90;;;;;;4956013;28;20035;-77
2022/03/01 13:09:23;;;;;;;3.83;1.75;;;4.80;99.90;;;;;;4955543;28;20443;-74
2022/03/01 13:11:49;;;;;;;4.78;2.17;;;4.80;99.90;;;;;;4955515;29;20038;-75
2022/03/01 13:14:21;;;;;;;3.20;1.55;;;4.80;99.90;;;;;;4955620;29;20019;-75
2022/03/01 13:16:55;;;;;;;4.40;2.00;;;4.80;99.90;;;;;;4955461;28;20135;-76
2022/03/01 13:19:25;;;;;;;3.20;1.60;;;4.80;99.90;;;;;;4955340;28;20072;-76
2022/03/01 13:21:56;;;;;;;6.00;1.80;;;4.90;99.90;;;;;;4955503;28;20028;-76
2022/03/01 13:24:30;;;;;;;2.67;1.60;;;4.90;99.90;;;;;;4955094;28;20027;-76
2022/03/01 13:26:58;;;;;;;3.20;1.80;;;4.90;99.90;;;;;;4955230;28;20147;-76
2022/03/01 13:29:37;;;;;;;3.80;2.00;;;4.80;99.90;;;;;;4955444;28;20031;-75
2022/03/01 13:32:11;;;;;;;2.78;1.85;;;4.90;99.90;;;;;;4955255;28;20034;-75
2022/03/01 13:34:40;;;;;;;1.92;1.45;;;4.90;99.90;;;;;;4955633;28;20058;-76
2022/03/01 13:37:18;;;;;;;4.63;1.65;;;4.90;99.90;;;;;;4955114;28;20107;-75
2022/03/01 13:39:47;;;;;;;3.45;1.73;;;4.90;99.90;;;;;;4954998;28;20134;-76
2022/03/01 13:42:16;;;;;;;2.33;1.73;;;4.90;99.90;;;;;;4955058;28;20023;-77
2022/03/01 13:44:45;;;;;;;1.92;1.63;;;4.90;99.90;;;;;;4955024;28;20042;-76
2022/03/01 13:47:21;;;;;;;3.05;1.80;;;4.90;99.90;;;;;;4953592;29;20027;-76
2022/03/01 13:50:20;;;;;;;2.78;1.48;;;5.00;99.90;;;;;;4955365;28;20043;-75
2022/03/01 13:52:51;;;;;;;3.80;1.48;;;5.00;99.90;;;;;;4954981;28;20027;-76
2022/03/01 13:55:21;;;;;;;4.47;1.60;;;5.00;99.90;;;;;;4955026;28;20027;-77
2022/03/01 13:57:49;;;;;;;1.85;1.45;;;4.90;99.90;;;;;;4954902;28;20025;-77